sensor_id;sensor_type;location;lat;lon;timestamp;P1;durP1;ratioP1;P2;durP2;ratioP2
77078;SDS011;66004;55.096;38.760;2023-01-23T00:02:18;22.20;;;6.35;;
77078;SDS011;66004;55.096;38.760;2023-01-23T00:04:44;19.02;;;6.13;;
77078;SDS011;66004;55.096;38.760;2023-01-23T00:07:10;16.75;;;6.03;;
77078;SDS011;66004;55.096;38.760;2023-01-23T00:09:35;21.13;;;6.47;;
77078;SDS011;66004;55.096;38.760;2023-01-23T00:12:01;18.48;;;6.65;;
77078;SDS011;66004;55.096;38.760;2023-01-23T00:14:26;18.75;;;6.75;;
77078;SDS011;66004;55.096;38.760;2023-01-23T00:16:52;22.02;;;6.47;;
77078;SDS011;66004;55.096;38.760;2023-01-23T00:19:17;18.58;;;6.53;;
77078;SDS011;66004;55.096;38.760;2023-01-23T00:21:43;19.02;;;5.95;;
77078;SDS011;66004;55.096;38.760;2023-01-23T00:24:09;21.02;;;6.95;;
77078;SDS011;66004;55.096;38.760;2023-01-23T00:26:36;20.92;;;6.55;;
77078;SDS011;66004;55.096;38.760;2023-01-23T00:29:02;19.40;;;6.03;;
77078;SDS011;66004;55.096;38.760;2023-01-23T00:31:30;21.40;;;6.18;;
77078;SDS011;66004;55.096;38.760;2023-01-23T00:34:02;16.95;;;6.78;;
77078;SDS011;66004;55.096;38.760;2023-01-23T00:36:31;19.38;;;5.80;;
77078;SDS011;66004;55.096;38.760;2023-01-23T00:39:01;27.70;;;6.53;;
77078;SDS011;66004;55.096;38.760;2023-01-23T00:41:28;20.63;;;6.75;;
77078;SDS011;66004;55.096;38.760;2023-01-23T00:43:54;21.08;;;5.97;;
77078;SDS011;66004;55.096;38.760;2023-01-23T00:46:20;18.63;;;5.85;;
77078;SDS011;66004;55.096;38.760;2023-01-23T00:51:11;21.85;;;5.53;;
77078;SDS011;66004;55.096;38.760;2023-01-23T00:53:37;18.52;;;6.13;;
77078;SDS011;66004;55.096;38.760;2023-01-23T00:56:03;25.92;;;7.53;;
77078;SDS011;66004;55.096;38.760;2023-01-23T00:58:29;18.80;;;6.35;;
77078;SDS011;66004;55.096;38.760;2023-01-23T01:00:54;19.33;;;5.78;;
77078;SDS011;66004;55.096;38.760;2023-01-23T01:03:20;14.63;;;5.25;;
77078;SDS011;66004;55.096;38.760;2023-01-23T01:05:45;23.20;;;6.05;;
77078;SDS011;66004;55.096;38.760;2023-01-23T01:08:11;15.35;;;5.18;;
77078;SDS011;66004;55.096;38.760;2023-01-23T01:10:40;21.23;;;6.47;;
77078;SDS011;66004;55.096;38.760;2023-01-23T01:13:06;20.00;;;6.75;;
77078;SDS011;66004;55.096;38.760;2023-01-23T01:15:32;16.15;;;6.75;;
77078;SDS011;66004;55.096;38.760;2023-01-23T01:17:58;23.15;;;6.30;;
77078;SDS011;66004;55.096;38.760;2023-01-23T01:20:24;21.30;;;5.93;;
77078;SDS011;66004;55.096;38.760;2023-01-23T01:22:55;17.85;;;5.80;;
77078;SDS011;66004;55.096;38.760;2023-01-23T01:25:22;19.92;;;6.10;;
77078;SDS011;66004;55.096;38.760;2023-01-23T01:30:14;21.67;;;6.17;;
77078;SDS011;66004;55.096;38.760;2023-01-23T01:32:41;15.80;;;5.45;;
77078;SDS011;66004;55.096;38.760;2023-01-23T01:35:07;22.63;;;6.32;;
77078;SDS011;66004;55.096;38.760;2023-01-23T01:37:37;19.98;;;5.63;;
77078;SDS011;66004;55.096;38.760;2023-01-23T01:40:05;24.33;;;6.18;;
77078;SDS011;66004;55.096;38.760;2023-01-23T01:42:43;21.70;;;6.25;;
77078;SDS011;66004;55.096;38.760;2023-01-23T01:48:14;17.92;;;6.18;;
77078;SDS011;66004;55.096;38.760;2023-01-23T01:50:43;16.90;;;5.75;;
77078;SDS011;66004;55.096;38.760;2023-01-23T01:53:08;20.67;;;6.38;;
77078;SDS011;66004;55.096;38.760;2023-01-23T01:55:35;22.38;;;5.93;;
77078;SDS011;66004;55.096;38.760;2023-01-23T01:58:01;24.77;;;6.55;;
77078;SDS011;66004;55.096;38.760;2023-01-23T02:00:27;21.75;;;6.35;;
77078;SDS011;66004;55.096;38.760;2023-01-23T02:02:53;29.65;;;6.60;;
77078;SDS011;66004;55.096;38.760;2023-01-23T02:05:29;17.70;;;6.30;;
77078;SDS011;66004;55.096;38.760;2023-01-23T02:10:50;21.95;;;5.50;;
77078;SDS011;66004;55.096;38.760;2023-01-23T02:13:18;18.05;;;6.03;;
77078;SDS011;66004;55.096;38.760;2023-01-23T02:15:44;16.63;;;6.00;;
77078;SDS011;66004;55.096;38.760;2023-01-23T02:18:10;21.75;;;6.40;;
77078;SDS011;66004;55.096;38.760;2023-01-23T02:20:36;14.88;;;5.32;;
77078;SDS011;66004;55.096;38.760;2023-01-23T02:25:37;16.08;;;5.88;;
77078;SDS011;66004;55.096;38.760;2023-01-23T02:28:05;29.20;;;7.07;;
77078;SDS011;66004;55.096;38.760;2023-01-23T02:30:31;16.55;;;6.22;;
77078;SDS011;66004;55.096;38.760;2023-01-23T02:35:44;17.50;;;5.53;;
77078;SDS011;66004;55.096;38.760;2023-01-23T02:38:10;26.25;;;6.07;;
77078;SDS011;66004;55.096;38.760;2023-01-23T02:40:37;21.83;;;6.78;;
77078;SDS011;66004;55.096;38.760;2023-01-23T02:43:06;21.42;;;7.03;;
77078;SDS011;66004;55.096;38.760;2023-01-23T02:45:35;24.50;;;7.03;;
77078;SDS011;66004;55.096;38.760;2023-01-23T02:48:01;22.58;;;6.00;;
77078;SDS011;66004;55.096;38.760;2023-01-23T02:53:31;23.85;;;6.20;;
77078;SDS011;66004;55.096;38.760;2023-01-23T02:55:57;16.30;;;5.75;;
77078;SDS011;66004;55.096;38.760;2023-01-23T02:58:24;16.38;;;5.60;;
77078;SDS011;66004;55.096;38.760;2023-01-23T03:01:10;14.45;;;5.82;;
77078;SDS011;66004;55.096;38.760;2023-01-23T03:03:36;18.35;;;6.00;;
77078;SDS011;66004;55.096;38.760;2023-01-23T03:06:02;18.85;;;5.88;;
77078;SDS011;66004;55.096;38.760;2023-01-23T03:08:28;24.70;;;6.38;;
77078;SDS011;66004;55.096;38.760;2023-01-23T03:11:02;25.60;;;6.43;;
77078;SDS011;66004;55.096;38.760;2023-01-23T03:13:28;21.08;;;6.25;;
77078;SDS011;66004;55.096;38.760;2023-01-23T03:15:54;16.92;;;5.82;;
77078;SDS011;66004;55.096;38.760;2023-01-23T03:18:22;23.13;;;6.40;;
77078;SDS011;66004;55.096;38.760;2023-01-23T03:23:13;21.63;;;5.75;;
77078;SDS011;66004;55.096;38.760;2023-01-23T03:25:41;16.52;;;5.10;;
77078;SDS011;66004;55.096;38.760;2023-01-23T03:28:08;23.17;;;6.43;;
77078;SDS011;66004;55.096;38.760;2023-01-23T03:30:57;18.23;;;5.68;;
77078;SDS011;66004;55.096;38.760;2023-01-23T03:33:23;21.17;;;5.20;;
77078;SDS011;66004;55.096;38.760;2023-01-23T03:35:49;21.13;;;6.40;;
77078;SDS011;66004;55.096;38.760;2023-01-23T03:38:15;26.40;;;6.22;;
77078;SDS011;66004;55.096;38.760;2023-01-23T03:40:43;25.05;;;6.22;;
77078;SDS011;66004;55.096;38.760;2023-01-23T03:43:30;19.23;;;5.68;;
77078;SDS011;66004;55.096;38.760;2023-01-23T03:45:57;18.60;;;6.22;;
77078;SDS011;66004;55.096;38.760;2023-01-23T03:48:23;24.60;;;7.28;;
77078;SDS011;66004;55.096;38.760;2023-01-23T03:50:48;21.30;;;6.05;;
77078;SDS011;66004;55.096;38.760;2023-01-23T03:53:14;25.70;;;6.75;;
77078;SDS011;66004;55.096;38.760;2023-01-23T03:55:39;26.38;;;7.05;;
77078;SDS011;66004;55.096;38.760;2023-01-23T03:58:05;22.23;;;6.72;;
77078;SDS011;66004;55.096;38.760;2023-01-23T04:00:30;22.25;;;6.68;;
77078;SDS011;66004;55.096;38.760;2023-01-23T04:02:56;20.98;;;6.72;;
77078;SDS011;66004;55.096;38.760;2023-01-23T04:05:22;24.45;;;6.70;;
77078;SDS011;66004;55.096;38.760;2023-01-23T04:07:47;18.17;;;6.07;;
77078;SDS011;66004;55.096;38.760;2023-01-23T04:10:13;19.50;;;6.68;;
77078;SDS011;66004;55.096;38.760;2023-01-23T04:12:41;21.80;;;7.65;;
77078;SDS011;66004;55.096;38.760;2023-01-23T04:15:07;26.27;;;7.90;;
77078;SDS011;66004;55.096;38.760;2023-01-23T04:17:33;19.48;;;6.22;;
77078;SDS011;66004;55.096;38.760;2023-01-23T04:19:59;20.70;;;6.25;;
77078;SDS011;66004;55.096;38.760;2023-01-23T04:22:24;18.95;;;6.25;;
77078;SDS011;66004;55.096;38.760;2023-01-23T04:24:50;21.15;;;7.10;;
77078;SDS011;66004;55.096;38.760;2023-01-23T04:27:15;27.52;;;7.25;;
77078;SDS011;66004;55.096;38.760;2023-01-23T04:29:41;23.35;;;6.75;;
77078;SDS011;66004;55.096;38.760;2023-01-23T04:32:06;18.13;;;5.63;;
77078;SDS011;66004;55.096;38.760;2023-01-23T04:34:33;22.83;;;6.97;;
77078;SDS011;66004;55.096;38.760;2023-01-23T04:36:59;26.48;;;7.30;;
77078;SDS011;66004;55.096;38.760;2023-01-23T04:39:25;17.52;;;6.13;;
77078;SDS011;66004;55.096;38.760;2023-01-23T04:41:50;17.75;;;6.03;;
77078;SDS011;66004;55.096;38.760;2023-01-23T04:44:16;17.00;;;6.68;;
77078;SDS011;66004;55.096;38.760;2023-01-23T04:46:47;19.30;;;5.85;;
77078;SDS011;66004;55.096;38.760;2023-01-23T04:49:15;19.02;;;6.68;;
77078;SDS011;66004;55.096;38.760;2023-01-23T04:51:42;19.15;;;7.00;;
77078;SDS011;66004;55.096;38.760;2023-01-23T04:54:09;19.17;;;6.38;;
77078;SDS011;66004;55.096;38.760;2023-01-23T04:56:35;11.98;;;4.63;;
77078;SDS011;66004;55.096;38.760;2023-01-23T04:59:01;14.32;;;4.57;;
77078;SDS011;66004;55.096;38.760;2023-01-23T05:01:27;14.98;;;5.70;;
77078;SDS011;66004;55.096;38.760;2023-01-23T05:03:52;13.13;;;5.10;;
77078;SDS011;66004;55.096;38.760;2023-01-23T05:06:18;15.98;;;5.38;;
77078;SDS011;66004;55.096;38.760;2023-01-23T05:08:44;16.98;;;5.05;;
77078;SDS011;66004;55.096;38.760;2023-01-23T05:11:10;12.70;;;4.68;;
77078;SDS011;66004;55.096;38.760;2023-01-23T05:13:35;10.30;;;4.90;;
77078;SDS011;66004;55.096;38.760;2023-01-23T05:16:01;11.60;;;4.53;;
77078;SDS011;66004;55.096;38.760;2023-01-23T05:18:27;13.00;;;4.28;;
77078;SDS011;66004;55.096;38.760;2023-01-23T05:23:19;10.13;;;4.07;;
77078;SDS011;66004;55.096;38.760;2023-01-23T05:25:45;10.10;;;3.95;;
77078;SDS011;66004;55.096;38.760;2023-01-23T05:28:10;10.15;;;4.82;;
77078;SDS011;66004;55.096;38.760;2023-01-23T05:30:36;10.50;;;4.60;;
77078;SDS011;66004;55.096;38.760;2023-01-23T05:33:01;10.00;;;4.55;;
77078;SDS011;66004;55.096;38.760;2023-01-23T05:35:27;10.10;;;3.95;;
77078;SDS011;66004;55.096;38.760;2023-01-23T05:37:53;11.82;;;4.05;;
77078;SDS011;66004;55.096;38.760;2023-01-23T05:40:19;7.25;;;4.07;;
77078;SDS011;66004;55.096;38.760;2023-01-23T05:42:45;12.50;;;4.65;;
77078;SDS011;66004;55.096;38.760;2023-01-23T05:45:11;12.13;;;4.53;;
77078;SDS011;66004;55.096;38.760;2023-01-23T05:47:37;15.25;;;5.57;;
77078;SDS011;66004;55.096;38.760;2023-01-23T05:50:03;12.90;;;4.97;;
77078;SDS011;66004;55.096;38.760;2023-01-23T05:54:55;17.65;;;5.38;;
77078;SDS011;66004;55.096;38.760;2023-01-23T05:57:21;17.70;;;5.95;;
77078;SDS011;66004;55.096;38.760;2023-01-23T05:59:47;18.25;;;6.88;;
77078;SDS011;66004;55.096;38.760;2023-01-23T06:02:12;15.98;;;6.18;;
77078;SDS011;66004;55.096;38.760;2023-01-23T06:04:38;15.70;;;6.10;;
77078;SDS011;66004;55.096;38.760;2023-01-23T06:07:03;16.45;;;6.88;;
77078;SDS011;66004;55.096;38.760;2023-01-23T06:09:29;19.80;;;7.15;;
77078;SDS011;66004;55.096;38.760;2023-01-23T06:11:55;18.88;;;7.13;;
77078;SDS011;66004;55.096;38.760;2023-01-23T06:14:20;19.98;;;7.47;;
77078;SDS011;66004;55.096;38.760;2023-01-23T06:16:46;20.30;;;7.82;;
77078;SDS011;66004;55.096;38.760;2023-01-23T06:19:11;25.35;;;8.45;;
77078;SDS011;66004;55.096;38.760;2023-01-23T06:21:37;23.38;;;8.75;;
77078;SDS011;66004;55.096;38.760;2023-01-23T06:24:02;21.88;;;8.20;;
77078;SDS011;66004;55.096;38.760;2023-01-23T06:26:28;22.25;;;8.50;;
77078;SDS011;66004;55.096;38.760;2023-01-23T06:28:53;19.08;;;7.05;;
77078;SDS011;66004;55.096;38.760;2023-01-23T06:31:19;23.33;;;8.75;;
77078;SDS011;66004;55.096;38.760;2023-01-23T06:33:48;28.05;;;9.32;;
77078;SDS011;66004;55.096;38.760;2023-01-23T06:36:15;26.35;;;8.80;;
77078;SDS011;66004;55.096;38.760;2023-01-23T06:38:41;28.83;;;9.93;;
77078;SDS011;66004;55.096;38.760;2023-01-23T06:41:07;25.58;;;9.45;;
77078;SDS011;66004;55.096;38.760;2023-01-23T06:43:33;25.88;;;9.20;;
77078;SDS011;66004;55.096;38.760;2023-01-23T06:45:59;28.42;;;9.73;;
77078;SDS011;66004;55.096;38.760;2023-01-23T06:48:24;27.77;;;9.25;;
77078;SDS011;66004;55.096;38.760;2023-01-23T06:50:50;26.05;;;9.60;;
77078;SDS011;66004;55.096;38.760;2023-01-23T06:53:16;25.63;;;9.10;;
77078;SDS011;66004;55.096;38.760;2023-01-23T06:58:07;29.85;;;8.60;;
77078;SDS011;66004;55.096;38.760;2023-01-23T07:00:33;25.77;;;8.95;;
77078;SDS011;66004;55.096;38.760;2023-01-23T07:02:58;26.77;;;9.95;;
77078;SDS011;66004;55.096;38.760;2023-01-23T07:05:31;32.05;;;9.82;;
77078;SDS011;66004;55.096;38.760;2023-01-23T07:08:00;29.80;;;9.70;;
77078;SDS011;66004;55.096;38.760;2023-01-23T07:10:26;27.42;;;9.70;;
77078;SDS011;66004;55.096;38.760;2023-01-23T07:12:51;23.92;;;8.38;;
77078;SDS011;66004;55.096;38.760;2023-01-23T07:15:17;25.02;;;9.70;;
77078;SDS011;66004;55.096;38.760;2023-01-23T07:17:42;26.83;;;9.18;;
77078;SDS011;66004;55.096;38.760;2023-01-23T07:20:08;30.02;;;10.80;;
77078;SDS011;66004;55.096;38.760;2023-01-23T07:22:34;23.67;;;9.00;;
77078;SDS011;66004;55.096;38.760;2023-01-23T07:25:00;31.50;;;8.50;;
77078;SDS011;66004;55.096;38.760;2023-01-23T07:27:25;28.67;;;9.25;;
77078;SDS011;66004;55.096;38.760;2023-01-23T07:29:51;23.60;;;7.53;;
77078;SDS011;66004;55.096;38.760;2023-01-23T07:32:17;22.20;;;7.47;;
77078;SDS011;66004;55.096;38.760;2023-01-23T07:34:42;22.58;;;7.78;;
77078;SDS011;66004;55.096;38.760;2023-01-23T07:37:08;21.08;;;8.15;;
77078;SDS011;66004;55.096;38.760;2023-01-23T07:39:33;21.55;;;7.85;;
77078;SDS011;66004;55.096;38.760;2023-01-23T07:41:59;18.95;;;7.15;;
77078;SDS011;66004;55.096;38.760;2023-01-23T07:44:25;25.05;;;8.75;;
77078;SDS011;66004;55.096;38.760;2023-01-23T07:46:50;22.83;;;8.40;;
77078;SDS011;66004;55.096;38.760;2023-01-23T07:49:16;19.02;;;7.75;;
77078;SDS011;66004;55.096;38.760;2023-01-23T07:51:42;20.52;;;7.72;;
77078;SDS011;66004;55.096;38.760;2023-01-23T07:54:07;15.52;;;5.75;;
77078;SDS011;66004;55.096;38.760;2023-01-23T07:56:33;19.33;;;7.93;;
77078;SDS011;66004;55.096;38.760;2023-01-23T07:58:59;18.77;;;6.88;;
77078;SDS011;66004;55.096;38.760;2023-01-23T08:01:25;26.15;;;7.20;;
77078;SDS011;66004;55.096;38.760;2023-01-23T08:06:17;22.45;;;8.13;;
77078;SDS011;66004;55.096;38.760;2023-01-23T08:08:42;19.95;;;7.93;;
77078;SDS011;66004;55.096;38.760;2023-01-23T08:11:08;16.27;;;7.05;;
77078;SDS011;66004;55.096;38.760;2023-01-23T08:13:36;18.88;;;6.78;;
77078;SDS011;66004;55.096;38.760;2023-01-23T08:16:02;19.67;;;6.75;;
77078;SDS011;66004;55.096;38.760;2023-01-23T08:18:28;17.70;;;6.68;;
77078;SDS011;66004;55.096;38.760;2023-01-23T08:20:55;15.70;;;6.53;;
77078;SDS011;66004;55.096;38.760;2023-01-23T08:23:28;24.17;;;8.68;;
77078;SDS011;66004;55.096;38.760;2023-01-23T08:25:57;34.80;;;8.43;;
77078;SDS011;66004;55.096;38.760;2023-01-23T08:28:25;15.40;;;6.03;;
77078;SDS011;66004;55.096;38.760;2023-01-23T08:30:51;20.00;;;7.10;;
77078;SDS011;66004;55.096;38.760;2023-01-23T08:33:18;28.23;;;7.82;;
77078;SDS011;66004;55.096;38.760;2023-01-23T08:35:50;19.20;;;7.10;;
77078;SDS011;66004;55.096;38.760;2023-01-23T08:38:17;19.30;;;7.28;;
77078;SDS011;66004;55.096;38.760;2023-01-23T08:40:44;20.08;;;6.45;;
77078;SDS011;66004;55.096;38.760;2023-01-23T08:43:10;26.08;;;7.50;;
77078;SDS011;66004;55.096;38.760;2023-01-23T08:45:38;21.23;;;6.50;;
77078;SDS011;66004;55.096;38.760;2023-01-23T08:48:11;30.08;;;6.57;;
77078;SDS011;66004;55.096;38.760;2023-01-23T08:53:34;10.45;;;4.72;;
77078;SDS011;66004;55.096;38.760;2023-01-23T08:56:00;15.57;;;5.00;;
77078;SDS011;66004;55.096;38.760;2023-01-23T08:58:31;10.95;;;4.40;;
77078;SDS011;66004;55.096;38.760;2023-01-23T09:00:56;11.13;;;4.45;;
77078;SDS011;66004;55.096;38.760;2023-01-23T09:03:22;10.25;;;4.45;;
77078;SDS011;66004;55.096;38.760;2023-01-23T09:05:48;15.20;;;6.05;;
77078;SDS011;66004;55.096;38.760;2023-01-23T09:08:13;10.07;;;4.45;;
77078;SDS011;66004;55.096;38.760;2023-01-23T09:10:39;13.52;;;4.00;;
77078;SDS011;66004;55.096;38.760;2023-01-23T09:13:05;12.18;;;4.25;;
77078;SDS011;66004;55.096;38.760;2023-01-23T09:15:31;13.85;;;5.47;;
77078;SDS011;66004;55.096;38.760;2023-01-23T09:17:56;12.45;;;4.40;;
77078;SDS011;66004;55.096;38.760;2023-01-23T09:20:22;12.35;;;5.22;;
77078;SDS011;66004;55.096;38.760;2023-01-23T09:22:51;10.05;;;4.50;;
77078;SDS011;66004;55.096;38.760;2023-01-23T09:27:42;10.85;;;4.70;;
77078;SDS011;66004;55.096;38.760;2023-01-23T09:30:08;12.90;;;4.78;;
77078;SDS011;66004;55.096;38.760;2023-01-23T09:35:00;9.73;;;4.97;;
77078;SDS011;66004;55.096;38.760;2023-01-23T09:37:26;9.90;;;3.92;;
77078;SDS011;66004;55.096;38.760;2023-01-23T09:40:15;11.80;;;4.28;;
77078;SDS011;66004;55.096;38.760;2023-01-23T09:42:42;9.05;;;4.38;;
77078;SDS011;66004;55.096;38.760;2023-01-23T09:45:08;9.52;;;4.30;;
77078;SDS011;66004;55.096;38.760;2023-01-23T09:47:50;10.55;;;4.75;;
77078;SDS011;66004;55.096;38.760;2023-01-23T09:50:32;10.68;;;4.03;;
77078;SDS011;66004;55.096;38.760;2023-01-23T09:53:05;11.23;;;4.32;;
77078;SDS011;66004;55.096;38.760;2023-01-23T09:58:10;13.23;;;4.63;;
77078;SDS011;66004;55.096;38.760;2023-01-23T10:00:43;10.60;;;4.28;;
77078;SDS011;66004;55.096;38.760;2023-01-23T10:03:11;10.07;;;4.70;;
77078;SDS011;66004;55.096;38.760;2023-01-23T10:11:20;13.93;;;4.32;;
77078;SDS011;66004;55.096;38.760;2023-01-23T10:19:43;9.48;;;4.40;;
77078;SDS011;66004;55.096;38.760;2023-01-23T10:25:13;10.90;;;4.68;;
77078;SDS011;66004;55.096;38.760;2023-01-23T10:27:44;15.35;;;4.95;;
77078;SDS011;66004;55.096;38.760;2023-01-23T10:33:14;11.05;;;4.78;;
77078;SDS011;66004;55.096;38.760;2023-01-23T10:35:55;13.30;;;5.65;;
77078;SDS011;66004;55.096;38.760;2023-01-23T10:38:34;10.35;;;4.55;;
77078;SDS011;66004;55.096;38.760;2023-01-23T10:41:01;12.32;;;4.25;;
77078;SDS011;66004;55.096;38.760;2023-01-23T10:43:44;11.52;;;5.07;;
77078;SDS011;66004;55.096;38.760;2023-01-23T10:46:13;13.23;;;4.75;;
77078;SDS011;66004;55.096;38.760;2023-01-23T10:48:42;12.60;;;5.15;;
77078;SDS011;66004;55.096;38.760;2023-01-23T10:56:27;15.43;;;9.15;;
77078;SDS011;66004;55.096;38.760;2023-01-23T10:58:54;15.57;;;5.75;;
77078;SDS011;66004;55.096;38.760;2023-01-23T11:01:28;11.18;;;5.35;;
77078;SDS011;66004;55.096;38.760;2023-01-23T11:03:55;12.07;;;4.97;;
77078;SDS011;66004;55.096;38.760;2023-01-23T11:06:22;10.05;;;5.22;;
77078;SDS011;66004;55.096;38.760;2023-01-23T11:08:56;9.38;;;4.40;;
77078;SDS011;66004;55.096;38.760;2023-01-23T11:11:31;8.73;;;4.50;;
77078;SDS011;66004;55.096;38.760;2023-01-23T11:16:45;11.23;;;5.32;;
77078;SDS011;66004;55.096;38.760;2023-01-23T11:19:44;16.20;;;5.03;;
77078;SDS011;66004;55.096;38.760;2023-01-23T11:24:55;13.30;;;5.03;;
77078;SDS011;66004;55.096;38.760;2023-01-23T11:27:23;13.60;;;4.78;;
77078;SDS011;66004;55.096;38.760;2023-01-23T11:32:34;10.30;;;4.25;;
77078;SDS011;66004;55.096;38.760;2023-01-23T11:35:15;12.02;;;4.35;;
77078;SDS011;66004;55.096;38.760;2023-01-23T11:37:47;14.75;;;3.97;;
77078;SDS011;66004;55.096;38.760;2023-01-23T11:40:15;9.57;;;4.10;;
77078;SDS011;66004;55.096;38.760;2023-01-23T11:42:42;7.53;;;3.97;;
77078;SDS011;66004;55.096;38.760;2023-01-23T11:45:20;12.05;;;4.75;;
77078;SDS011;66004;55.096;38.760;2023-01-23T11:50:48;10.88;;;4.60;;
77078;SDS011;66004;55.096;38.760;2023-01-23T12:01:18;13.20;;;4.80;;
77078;SDS011;66004;55.096;38.760;2023-01-23T12:09:26;11.85;;;5.15;;
77078;SDS011;66004;55.096;38.760;2023-01-23T12:12:21;10.15;;;5.00;;
77078;SDS011;66004;55.096;38.760;2023-01-23T12:36:19;12.75;;;5.25;;
77078;SDS011;66004;55.096;38.760;2023-01-23T12:41:41;13.00;;;5.10;;
77078;SDS011;66004;55.096;38.760;2023-01-23T12:46:47;16.65;;;6.07;;
77078;SDS011;66004;55.096;38.760;2023-01-23T12:52:16;12.23;;;5.68;;
77078;SDS011;66004;55.096;38.760;2023-01-23T12:55:10;17.67;;;6.55;;
77078;SDS011;66004;55.096;38.760;2023-01-23T12:57:46;15.20;;;6.47;;
77078;SDS011;66004;55.096;38.760;2023-01-23T13:11:09;15.20;;;6.40;;
77078;SDS011;66004;55.096;38.760;2023-01-23T13:13:59;15.45;;;5.63;;
77078;SDS011;66004;55.096;38.760;2023-01-23T13:16:28;19.77;;;7.28;;
77078;SDS011;66004;55.096;38.760;2023-01-23T13:21:46;15.90;;;6.47;;
77078;SDS011;66004;55.096;38.760;2023-01-23T13:24:45;14.15;;;5.82;;
77078;SDS011;66004;55.096;38.760;2023-01-23T13:32:49;18.15;;;6.72;;
77078;SDS011;66004;55.096;38.760;2023-01-23T13:52:20;17.83;;;6.32;;
77078;SDS011;66004;55.096;38.760;2023-01-23T13:55:17;17.75;;;6.93;;
77078;SDS011;66004;55.096;38.760;2023-01-23T13:58:09;19.20;;;7.85;;
77078;SDS011;66004;55.096;38.760;2023-01-23T14:00:37;15.93;;;6.10;;
77078;SDS011;66004;55.096;38.760;2023-01-23T14:06:08;15.52;;;6.05;;
77078;SDS011;66004;55.096;38.760;2023-01-23T14:08:45;18.05;;;6.53;;
77078;SDS011;66004;55.096;38.760;2023-01-23T14:11:17;17.23;;;7.45;;
77078;SDS011;66004;55.096;38.760;2023-01-23T14:13:51;21.48;;;6.70;;
77078;SDS011;66004;55.096;38.760;2023-01-23T14:16:41;19.75;;;6.82;;
77078;SDS011;66004;55.096;38.760;2023-01-23T14:19:20;16.95;;;6.20;;
77078;SDS011;66004;55.096;38.760;2023-01-23T14:21:50;14.20;;;5.68;;
77078;SDS011;66004;55.096;38.760;2023-01-23T14:24:26;20.52;;;6.20;;
77078;SDS011;66004;55.096;38.760;2023-01-23T14:26:58;19.77;;;6.25;;
77078;SDS011;66004;55.096;38.760;2023-01-23T14:29:30;14.10;;;5.40;;
77078;SDS011;66004;55.096;38.760;2023-01-23T14:31:57;15.68;;;6.25;;
77078;SDS011;66004;55.096;38.760;2023-01-23T14:34:23;16.95;;;6.13;;
77078;SDS011;66004;55.096;38.760;2023-01-23T14:37:01;24.13;;;6.63;;
77078;SDS011;66004;55.096;38.760;2023-01-23T14:39:30;17.20;;;6.43;;
77078;SDS011;66004;55.096;38.760;2023-01-23T14:41:58;15.77;;;6.57;;
77078;SDS011;66004;55.096;38.760;2023-01-23T14:44:37;13.07;;;6.03;;
77078;SDS011;66004;55.096;38.760;2023-01-23T14:47:13;18.63;;;6.00;;
77078;SDS011;66004;55.096;38.760;2023-01-23T14:49:43;16.02;;;5.72;;
77078;SDS011;66004;55.096;38.760;2023-01-23T14:53:31;13.70;;;6.03;;
77078;SDS011;66004;55.096;38.760;2023-01-23T14:55:56;17.95;;;6.10;;
77078;SDS011;66004;55.096;38.760;2023-01-23T14:58:26;18.58;;;6.57;;
77078;SDS011;66004;55.096;38.760;2023-01-23T15:00:53;19.58;;;6.47;;
77078;SDS011;66004;55.096;38.760;2023-01-23T15:06:13;14.68;;;5.32;;
77078;SDS011;66004;55.096;38.760;2023-01-23T15:08:43;17.02;;;6.32;;
77078;SDS011;66004;55.096;38.760;2023-01-23T15:11:09;14.80;;;6.30;;
77078;SDS011;66004;55.096;38.760;2023-01-23T15:13:47;22.08;;;6.78;;
77078;SDS011;66004;55.096;38.760;2023-01-23T15:16:32;18.92;;;6.65;;
77078;SDS011;66004;55.096;38.760;2023-01-23T15:19:06;19.35;;;6.50;;
77078;SDS011;66004;55.096;38.760;2023-01-23T15:21:43;18.65;;;6.63;;
77078;SDS011;66004;55.096;38.760;2023-01-23T15:26:38;19.17;;;7.13;;
77078;SDS011;66004;55.096;38.760;2023-01-23T15:36:54;16.30;;;6.30;;
77078;SDS011;66004;55.096;38.760;2023-01-23T15:39:26;19.65;;;7.03;;
77078;SDS011;66004;55.096;38.760;2023-01-23T15:42:02;16.98;;;6.47;;
77078;SDS011;66004;55.096;38.760;2023-01-23T15:44:32;18.33;;;6.38;;
77078;SDS011;66004;55.096;38.760;2023-01-23T15:46:58;17.60;;;6.70;;
77078;SDS011;66004;55.096;38.760;2023-01-23T15:49:28;17.98;;;7.55;;
77078;SDS011;66004;55.096;38.760;2023-01-23T15:51:56;18.13;;;6.53;;
77078;SDS011;66004;55.096;38.760;2023-01-23T15:54:25;15.65;;;6.55;;
77078;SDS011;66004;55.096;38.760;2023-01-23T15:56:55;17.73;;;8.00;;
77078;SDS011;66004;55.096;38.760;2023-01-23T15:59:20;20.77;;;8.55;;
77078;SDS011;66004;55.096;38.760;2023-01-23T16:01:46;20.35;;;8.38;;
77078;SDS011;66004;55.096;38.760;2023-01-23T16:04:11;18.60;;;7.97;;
77078;SDS011;66004;55.096;38.760;2023-01-23T16:06:37;28.27;;;10.32;;
77078;SDS011;66004;55.096;38.760;2023-01-23T16:09:03;20.65;;;9.75;;
77078;SDS011;66004;55.096;38.760;2023-01-23T16:11:30;23.20;;;8.80;;
77078;SDS011;66004;55.096;38.760;2023-01-23T16:13:58;18.08;;;8.07;;
77078;SDS011;66004;55.096;38.760;2023-01-23T16:16:24;22.67;;;9.27;;
77078;SDS011;66004;55.096;38.760;2023-01-23T16:18:49;43.30;;;8.38;;
77078;SDS011;66004;55.096;38.760;2023-01-23T16:21:16;22.63;;;8.30;;
77078;SDS011;66004;55.096;38.760;2023-01-23T16:23:43;20.15;;;8.57;;
77078;SDS011;66004;55.096;38.760;2023-01-23T16:26:19;21.00;;;9.60;;
77078;SDS011;66004;55.096;38.760;2023-01-23T16:28:46;28.52;;;9.52;;
77078;SDS011;66004;55.096;38.760;2023-01-23T16:31:12;28.15;;;10.75;;
77078;SDS011;66004;55.096;38.760;2023-01-23T16:33:39;22.77;;;10.45;;
77078;SDS011;66004;55.096;38.760;2023-01-23T16:36:05;22.33;;;9.57;;
77078;SDS011;66004;55.096;38.760;2023-01-23T16:38:31;25.10;;;9.43;;
77078;SDS011;66004;55.096;38.760;2023-01-23T16:40:57;19.42;;;7.68;;
77078;SDS011;66004;55.096;38.760;2023-01-23T16:43:24;24.25;;;10.63;;
77078;SDS011;66004;55.096;38.760;2023-01-23T16:45:50;25.05;;;10.00;;
77078;SDS011;66004;55.096;38.760;2023-01-23T16:48:17;29.00;;;10.93;;
77078;SDS011;66004;55.096;38.760;2023-01-23T16:50:44;23.25;;;10.38;;
77078;SDS011;66004;55.096;38.760;2023-01-23T16:55:50;27.52;;;8.73;;
77078;SDS011;66004;55.096;38.760;2023-01-23T16:58:18;22.58;;;8.95;;
77078;SDS011;66004;55.096;38.760;2023-01-23T17:00:50;18.52;;;8.68;;
77078;SDS011;66004;55.096;38.760;2023-01-23T17:03:32;16.70;;;7.30;;
77078;SDS011;66004;55.096;38.760;2023-01-23T17:05:59;20.90;;;7.40;;
77078;SDS011;66004;55.096;38.760;2023-01-23T17:08:25;16.58;;;6.95;;
77078;SDS011;66004;55.096;38.760;2023-01-23T17:10:57;18.13;;;8.25;;
77078;SDS011;66004;55.096;38.760;2023-01-23T17:13:26;22.95;;;7.63;;
77078;SDS011;66004;55.096;38.760;2023-01-23T17:15:57;23.08;;;9.07;;
77078;SDS011;66004;55.096;38.760;2023-01-23T17:18:26;20.10;;;8.18;;
77078;SDS011;66004;55.096;38.760;2023-01-23T17:20:53;29.88;;;9.02;;
77078;SDS011;66004;55.096;38.760;2023-01-23T17:23:19;19.70;;;8.30;;
77078;SDS011;66004;55.096;38.760;2023-01-23T17:25:45;17.85;;;7.80;;